sensor_id;sensor_type;location;lat;lon;timestamp;temperature;humidity
1377;DHT22;682;52.502;13.488;2023-01-15T00:00:26;8.40;1.00
1377;DHT22;682;52.502;13.488;2023-01-15T00:02:56;8.40;1.00
1377;DHT22;682;52.502;13.488;2023-01-15T00:05:26;8.40;1.00
1377;DHT22;682;52.502;13.488;2023-01-15T00:07:53;8.40;1.00
1377;DHT22;682;52.502;13.488;2023-01-15T00:10:29;8.50;1.00
1377;DHT22;682;52.502;13.488;2023-01-15T00:12:57;8.50;1.00
1377;DHT22;682;52.502;13.488;2023-01-15T00:15:30;8.50;1.00
1377;DHT22;682;52.502;13.488;2023-01-15T00:18:17;8.50;1.00
1377;DHT22;682;52.502;13.488;2023-01-15T00:20:47;8.50;1.00
1377;DHT22;682;52.502;13.488;2023-01-15T00:23:16;8.50;1.00
1377;DHT22;682;52.502;13.488;2023-01-15T00:25:57;8.50;1.00
1377;DHT22;682;52.502;13.488;2023-01-15T00:28:50;8.60;1.00
1377;DHT22;682;52.502;13.488;2023-01-15T00:31:37;8.60;1.00
1377;DHT22;682;52.502;13.488;2023-01-15T00:34:06;8.70;1.00
1377;DHT22;682;52.502;13.488;2023-01-15T00:36:37;8.80;1.00
1377;DHT22;682;52.502;13.488;2023-01-15T00:39:07;8.70;1.00
1377;DHT22;682;52.502;13.488;2023-01-15T00:41:58;8.80;1.00
1377;DHT22;682;52.502;13.488;2023-01-15T00:44:49;8.80;1.00
1377;DHT22;682;52.502;13.488;2023-01-15T00:47:18;8.80;1.00
1377;DHT22;682;52.502;13.488;2023-01-15T00:49:47;8.90;1.00
1377;DHT22;682;52.502;13.488;2023-01-15T00:52:18;8.90;1.00
1377;DHT22;682;52.502;13.488;2023-01-15T00:54:49;8.90;1.00
1377;DHT22;682;52.502;13.488;2023-01-15T00:57:19;9.00;1.00
1377;DHT22;682;52.502;13.488;2023-01-15T01:00:00;9.10;1.00
1377;DHT22;682;52.502;13.488;2023-01-15T01:02:37;9.10;1.00
1377;DHT22;682;52.502;13.488;2023-01-15T01:05:30;9.10;1.00
1377;DHT22;682;52.502;13.488;2023-01-15T01:08:06;9.20;1.00
1377;DHT22;682;52.502;13.488;2023-01-15T01:13:25;9.20;1.00
1377;DHT22;682;52.502;13.488;2023-01-15T01:16:27;9.30;1.00
1377;DHT22;682;52.502;13.488;2023-01-15T01:19:13;9.30;1.00
1377;DHT22;682;52.502;13.488;2023-01-15T01:21:51;9.40;1.00
1377;DHT22;682;52.502;13.488;2023-01-15T01:24:28;9.50;1.00
1377;DHT22;682;52.502;13.488;2023-01-15T01:26:57;9.50;1.00
1377;DHT22;682;52.502;13.488;2023-01-15T01:29:28;9.60;1.00
1377;DHT22;682;52.502;13.488;2023-01-15T01:32:08;9.60;1.00
1377;DHT22;682;52.502;13.488;2023-01-15T01:34:37;9.60;1.00
1377;DHT22;682;52.502;13.488;2023-01-15T01:37:10;9.70;1.00
1377;DHT22;682;52.502;13.488;2023-01-15T01:39:51;9.70;1.00
1377;DHT22;682;52.502;13.488;2023-01-15T01:42:30;9.70;1.00
1377;DHT22;682;52.502;13.488;2023-01-15T01:45:30;9.80;1.00
1377;DHT22;682;52.502;13.488;2023-01-15T01:48:08;9.80;1.00
1377;DHT22;682;52.502;13.488;2023-01-15T01:50:38;9.80;1.00
1377;DHT22;682;52.502;13.488;2023-01-15T01:53:46;9.90;1.00
1377;DHT22;682;52.502;13.488;2023-01-15T01:56:10;9.90;1.00
1377;DHT22;682;52.502;13.488;2023-01-15T02:01:51;9.90;1.00
1377;DHT22;682;52.502;13.488;2023-01-15T02:04:32;9.80;1.00
1377;DHT22;682;52.502;13.488;2023-01-15T02:07:10;9.80;1.00
1377;DHT22;682;52.502;13.488;2023-01-15T02:09:38;9.70;1.00
1377;DHT22;682;52.502;13.488;2023-01-15T02:15:28;9.60;1.00
1377;DHT22;682;52.502;13.488;2023-01-15T02:18:46;9.50;1.00
1377;DHT22;682;52.502;13.488;2023-01-15T02:22:01;9.40;1.00
1377;DHT22;682;52.502;13.488;2023-01-15T02:25:04;9.40;1.00
1377;DHT22;682;52.502;13.488;2023-01-15T02:28:05;9.30;1.00
1377;DHT22;682;52.502;13.488;2023-01-15T02:31:08;9.30;1.00
1377;DHT22;682;52.502;13.488;2023-01-15T02:33:48;9.20;1.00
1377;DHT22;682;52.502;13.488;2023-01-15T02:36:41;9.20;1.00
1377;DHT22;682;52.502;13.488;2023-01-15T02:48:12;9.00;1.00
1377;DHT22;682;52.502;13.488;2023-01-15T02:50:47;9.00;1.00
1377;DHT22;682;52.502;13.488;2023-01-15T02:53:24;9.00;1.00
1377;DHT22;682;52.502;13.488;2023-01-15T02:55:58;9.00;1.00
1377;DHT22;682;52.502;13.488;2023-01-15T02:58:48;8.90;1.00
1377;DHT22;682;52.502;13.488;2023-01-15T03:02:14;8.90;1.00
1377;DHT22;682;52.502;13.488;2023-01-15T03:05:10;8.90;1.00
1377;DHT22;682;52.502;13.488;2023-01-15T03:07:57;9.00;1.00
1377;DHT22;682;52.502;13.488;2023-01-15T03:10:37;9.00;1.00
1377;DHT22;682;52.502;13.488;2023-01-15T03:16:22;8.90;1.00
1377;DHT22;682;52.502;13.488;2023-01-15T03:19:19;8.90;1.00
1377;DHT22;682;52.502;13.488;2023-01-15T03:22:11;9.00;1.00
1377;DHT22;682;52.502;13.488;2023-01-15T03:25:03;8.90;1.00
1377;DHT22;682;52.502;13.488;2023-01-15T03:27:39;9.00;1.00
1377;DHT22;682;52.502;13.488;2023-01-15T03:30:11;9.00;1.00
1377;DHT22;682;52.502;13.488;2023-01-15T03:33:17;9.00;1.00
1377;DHT22;682;52.502;13.488;2023-01-15T03:39:07;9.00;1.00
1377;DHT22;682;52.502;13.488;2023-01-15T03:41:51;9.00;1.00
1377;DHT22;682;52.502;13.488;2023-01-15T03:44:39;9.00;1.00
1377;DHT22;682;52.502;13.488;2023-01-15T03:47:28;9.00;1.00
1377;DHT22;682;52.502;13.488;2023-01-15T03:50:12;9.00;1.00
1377;DHT22;682;52.502;13.488;2023-01-15T03:53:09;9.00;1.00
1377;DHT22;682;52.502;13.488;2023-01-15T03:56:13;9.00;1.00
1377;DHT22;682;52.502;13.488;2023-01-15T03:59:10;9.00;1.00
1377;DHT22;682;52.502;13.488;2023-01-15T04:02:29;9.00;1.00
1377;DHT22;682;52.502;13.488;2023-01-15T04:05:04;9.00;1.00
1377;DHT22;682;52.502;13.488;2023-01-15T04:08:12;9.00;1.00
1377;DHT22;682;52.502;13.488;2023-01-15T04:10:51;9.00;1.00
1377;DHT22;682;52.502;13.488;2023-01-15T04:13:41;9.00;1.00
1377;DHT22;682;52.502;13.488;2023-01-15T04:16:31;9.00;1.00
1377;DHT22;682;52.502;13.488;2023-01-15T04:19:00;9.00;1.00
1377;DHT22;682;52.502;13.488;2023-01-15T04:21:29;8.70;1.00
1377;DHT22;682;52.502;13.488;2023-01-15T04:24:10;8.50;1.00
1377;DHT22;682;52.502;13.488;2023-01-15T04:26:58;8.30;1.00
1377;DHT22;682;52.502;13.488;2023-01-15T04:30:09;8.20;1.00
1377;DHT22;682;52.502;13.488;2023-01-15T04:33:51;8.00;1.00
1377;DHT22;682;52.502;13.488;2023-01-15T04:36:06;7.90;1.00
1377;DHT22;682;52.502;13.488;2023-01-15T04:39:07;7.80;1.00
1377;DHT22;682;52.502;13.488;2023-01-15T04:41:37;7.70;1.00
1377;DHT22;682;52.502;13.488;2023-01-15T04:44:39;7.40;1.00
1377;DHT22;682;52.502;13.488;2023-01-15T04:47:38;6.90;1.00
1377;DHT22;682;52.502;13.488;2023-01-15T04:50:18;6.60;1.00
1377;DHT22;682;52.502;13.488;2023-01-15T04:52:49;6.50;1.00
1377;DHT22;682;52.502;13.488;2023-01-15T04:55:28;6.40;1.00
1377;DHT22;682;52.502;13.488;2023-01-15T04:58:10;6.30;1.00
1377;DHT22;682;52.502;13.488;2023-01-15T05:01:21;6.20;1.00
1377;DHT22;682;52.502;13.488;2023-01-15T05:04:37;6.20;1.00
1377;DHT22;682;52.502;13.488;2023-01-15T05:24:29;6.20;1.00
1377;DHT22;682;52.502;13.488;2023-01-15T05:27:19;6.20;1.00
1377;DHT22;682;52.502;13.488;2023-01-15T05:31:58;6.20;1.00
1377;DHT22;682;52.502;13.488;2023-01-15T05:33:08;6.10;1.00
1377;DHT22;682;52.502;13.488;2023-01-15T05:36:10;6.10;1.00
1377;DHT22;682;52.502;13.488;2023-01-15T05:39:28;6.10;1.00
1377;DHT22;682;52.502;13.488;2023-01-15T05:42:51;6.00;1.00
1377;DHT22;682;52.502;13.488;2023-01-15T05:45:58;6.00;1.00
1377;DHT22;682;52.502;13.488;2023-01-15T05:48:48;6.00;1.00
1377;DHT22;682;52.502;13.488;2023-01-15T05:51:29;6.00;1.00
1377;DHT22;682;52.502;13.488;2023-01-15T05:54:40;6.00;1.00
1377;DHT22;682;52.502;13.488;2023-01-15T05:57:20;6.00;1.00
1377;DHT22;682;52.502;13.488;2023-01-15T05:59:58;6.00;1.00
1377;DHT22;682;52.502;13.488;2023-01-15T06:02:30;6.00;1.00
1377;DHT22;682;52.502;13.488;2023-01-15T06:04:59;5.90;1.00
1377;DHT22;682;52.502;13.488;2023-01-15T06:07:30;5.90;1.00
1377;DHT22;682;52.502;13.488;2023-01-15T06:10:00;6.00;1.00
1377;DHT22;682;52.502;13.488;2023-01-15T06:12:49;6.00;1.00
1377;DHT22;682;52.502;13.488;2023-01-15T06:15:19;6.00;1.00
1377;DHT22;682;52.502;13.488;2023-01-15T06:17:48;6.00;1.00
1377;DHT22;682;52.502;13.488;2023-01-15T06:20:21;6.10;1.00
1377;DHT22;682;52.502;13.488;2023-01-15T06:25:48;6.20;1.00
1377;DHT22;682;52.502;13.488;2023-01-15T06:28:20;6.20;1.00
1377;DHT22;682;52.502;13.488;2023-01-15T06:34:29;6.30;1.00
1377;DHT22;682;52.502;13.488;2023-01-15T06:37:01;6.30;1.00
1377;DHT22;682;52.502;13.488;2023-01-15T06:40:02;6.30;1.00
1377;DHT22;682;52.502;13.488;2023-01-15T06:54:42;6.30;1.00
1377;DHT22;682;52.502;13.488;2023-01-15T06:58:10;6.30;1.00
1377;DHT22;682;52.502;13.488;2023-01-15T07:01:29;6.20;1.00
1377;DHT22;682;52.502;13.488;2023-01-15T07:06:30;6.20;1.00
1377;DHT22;682;52.502;13.488;2023-01-15T07:08:01;6.20;1.00
1377;DHT22;682;52.502;13.488;2023-01-15T07:31:30;6.10;1.00
1377;DHT22;682;52.502;13.488;2023-01-15T07:41:11;5.90;1.00
1377;DHT22;682;52.502;13.488;2023-01-15T07:43:58;5.90;1.00
1377;DHT22;682;52.502;13.488;2023-01-15T07:52:50;5.90;1.00
1377;DHT22;682;52.502;13.488;2023-01-15T07:55:18;5.90;1.00
1377;DHT22;682;52.502;13.488;2023-01-15T07:57:45;5.90;1.00
1377;DHT22;682;52.502;13.488;2023-01-15T08:00:18;5.90;1.00
1377;DHT22;682;52.502;13.488;2023-01-15T08:02:47;6.00;1.00
1377;DHT22;682;52.502;13.488;2023-01-15T08:05:21;6.00;1.00
1377;DHT22;682;52.502;13.488;2023-01-15T08:07:48;6.00;1.00
1377;DHT22;682;52.502;13.488;2023-01-15T08:10:15;5.90;1.00
1377;DHT22;682;52.502;13.488;2023-01-15T08:12:44;5.90;1.00
1377;DHT22;682;52.502;13.488;2023-01-15T08:15:32;6.00;1.00
1377;DHT22;682;52.502;13.488;2023-01-15T08:18:12;6.00;1.00
1377;DHT22;682;52.502;13.488;2023-01-15T08:20:39;6.00;1.00
1377;DHT22;682;52.502;13.488;2023-01-15T08:23:08;6.00;1.00
1377;DHT22;682;52.502;13.488;2023-01-15T08:25:36;6.00;1.00
1377;DHT22;682;52.502;13.488;2023-01-15T08:28:10;6.00;1.00
1377;DHT22;682;52.502;13.488;2023-01-15T08:30:42;6.00;1.00
1377;DHT22;682;52.502;13.488;2023-01-15T08:33:21;6.10;1.00
1377;DHT22;682;52.502;13.488;2023-01-15T08:36:11;6.10;1.00
1377;DHT22;682;52.502;13.488;2023-01-15T08:38:39;6.10;1.00
1377;DHT22;682;52.502;13.488;2023-01-15T08:41:09;6.20;1.00
1377;DHT22;682;52.502;13.488;2023-01-15T08:43:38;6.10;1.00
1377;DHT22;682;52.502;13.488;2023-01-15T08:46:20;6.20;1.00
1377;DHT22;682;52.502;13.488;2023-01-15T08:48:49;6.20;1.00
1377;DHT22;682;52.502;13.488;2023-01-15T08:51:20;6.30;1.00
1377;DHT22;682;52.502;13.488;2023-01-15T08:53:47;6.40;1.00
1377;DHT22;682;52.502;13.488;2023-01-15T08:56:21;6.50;1.00
1377;DHT22;682;52.502;13.488;2023-01-15T08:59:06;6.60;1.00
1377;DHT22;682;52.502;13.488;2023-01-15T09:01:41;6.60;1.00
1377;DHT22;682;52.502;13.488;2023-01-15T09:04:21;6.60;1.00
1377;DHT22;682;52.502;13.488;2023-01-15T09:06:48;6.70;1.00
1377;DHT22;682;52.502;13.488;2023-01-15T09:09:16;6.70;1.00
1377;DHT22;682;52.502;13.488;2023-01-15T09:11:52;6.80;1.00
1377;DHT22;682;52.502;13.488;2023-01-15T09:14:19;6.80;1.00
1377;DHT22;682;52.502;13.488;2023-01-15T09:16:52;6.70;1.00
1377;DHT22;682;52.502;13.488;2023-01-15T09:19:32;6.70;1.00
1377;DHT22;682;52.502;13.488;2023-01-15T09:22:10;6.70;1.00
1377;DHT22;682;52.502;13.488;2023-01-15T09:24:41;6.80;1.00
1377;DHT22;682;52.502;13.488;2023-01-15T09:27:19;6.80;1.00
1377;DHT22;682;52.502;13.488;2023-01-15T09:30:02;6.80;1.00
1377;DHT22;682;52.502;13.488;2023-01-15T09:32:52;6.90;1.00
1377;DHT22;682;52.502;13.488;2023-01-15T09:35:32;7.00;1.00
1377;DHT22;682;52.502;13.488;2023-01-15T09:38:16;6.90;1.00
1377;DHT22;682;52.502;13.488;2023-01-15T09:41:06;6.90;1.00
1377;DHT22;682;52.502;13.488;2023-01-15T09:44:22;7.00;1.00
1377;DHT22;682;52.502;13.488;2023-01-15T09:47:13;7.10;1.00
1377;DHT22;682;52.502;13.488;2023-01-15T09:53:23;7.10;1.00
1377;DHT22;682;52.502;13.488;2023-01-15T09:56:03;7.20;1.00
1377;DHT22;682;52.502;13.488;2023-01-15T09:58:42;7.30;1.00
1377;DHT22;682;52.502;13.488;2023-01-15T10:01:30;7.40;1.00
1377;DHT22;682;52.502;13.488;2023-01-15T10:04:39;7.60;1.00
1377;DHT22;682;52.502;13.488;2023-01-15T10:07:31;7.60;1.00
1377;DHT22;682;52.502;13.488;2023-01-15T10:10:11;7.70;1.00
1377;DHT22;682;52.502;13.488;2023-01-15T10:13:00;7.70;1.00
1377;DHT22;682;52.502;13.488;2023-01-15T10:15:35;7.80;1.00
1377;DHT22;682;52.502;13.488;2023-01-15T10:18:14;7.80;1.00
1377;DHT22;682;52.502;13.488;2023-01-15T10:20:52;7.80;1.00
1377;DHT22;682;52.502;13.488;2023-01-15T10:23:33;7.70;1.00
1377;DHT22;682;52.502;13.488;2023-01-15T10:26:14;7.70;1.00
1377;DHT22;682;52.502;13.488;2023-01-15T10:29:00;7.80;1.00
1377;DHT22;682;52.502;13.488;2023-01-15T10:31:51;7.80;1.00
1377;DHT22;682;52.502;13.488;2023-01-15T10:37:18;7.90;1.00
1377;DHT22;682;52.502;13.488;2023-01-15T10:40:14;7.90;1.00
1377;DHT22;682;52.502;13.488;2023-01-15T10:42:52;7.90;1.00
1377;DHT22;682;52.502;13.488;2023-01-15T10:45:27;8.00;1.00
1377;DHT22;682;52.502;13.488;2023-01-15T10:48:02;8.10;1.00
1377;DHT22;682;52.502;13.488;2023-01-15T10:53:41;8.20;1.00
1377;DHT22;682;52.502;13.488;2023-01-15T10:56:31;8.30;1.00
1377;DHT22;682;52.502;13.488;2023-01-15T10:59:20;8.20;1.00
1377;DHT22;682;52.502;13.488;2023-01-15T11:02:20;8.20;1.00
1377;DHT22;682;52.502;13.488;2023-01-15T11:05:22;8.30;1.00
1377;DHT22;682;52.502;13.488;2023-01-15T11:08:13;8.30;1.00
1377;DHT22;682;52.502;13.488;2023-01-15T11:10:50;8.50;1.00
1377;DHT22;682;52.502;13.488;2023-01-15T11:13:21;8.50;1.00
1377;DHT22;682;52.502;13.488;2023-01-15T11:16:23;8.60;1.00
1377;DHT22;682;52.502;13.488;2023-01-15T11:19:23;8.70;1.00
1377;DHT22;682;52.502;13.488;2023-01-15T11:22:18;8.50;1.00
1377;DHT22;682;52.502;13.488;2023-01-15T11:24:50;8.30;1.00
1377;DHT22;682;52.502;13.488;2023-01-15T11:27:24;8.20;1.00
1377;DHT22;682;52.502;13.488;2023-01-15T11:30:02;8.20;1.00
1377;DHT22;682;52.502;13.488;2023-01-15T11:33:02;8.20;1.00
1377;DHT22;682;52.502;13.488;2023-01-15T11:35:33;8.00;1.00
1377;DHT22;682;52.502;13.488;2023-01-15T11:38:13;8.00;1.00
1377;DHT22;682;52.502;13.488;2023-01-15T11:40:52;8.00;1.00
1377;DHT22;682;52.502;13.488;2023-01-15T11:43:32;8.10;1.00
1377;DHT22;682;52.502;13.488;2023-01-15T11:46:25;8.10;1.00
1377;DHT22;682;52.502;13.488;2023-01-15T11:49:15;8.10;1.00
1377;DHT22;682;52.502;13.488;2023-01-15T11:52:00;8.20;1.00
1377;DHT22;682;52.502;13.488;2023-01-15T11:54:32;8.30;1.00
1377;DHT22;682;52.502;13.488;2023-01-15T11:57:04;8.30;1.00
1377;DHT22;682;52.502;13.488;2023-01-15T11:59:38;8.20;1.00
1377;DHT22;682;52.502;13.488;2023-01-15T12:02:24;8.20;1.00
1377;DHT22;682;52.502;13.488;2023-01-15T12:04:58;8.10;1.00
1377;DHT22;682;52.502;13.488;2023-01-15T12:07:28;8.10;1.00
1377;DHT22;682;52.502;13.488;2023-01-15T12:10:09;8.10;1.00
1377;DHT22;682;52.502;13.488;2023-01-15T12:12:57;8.10;1.00
1377;DHT22;682;52.502;13.488;2023-01-15T12:15:33;8.20;1.00
1377;DHT22;682;52.502;13.488;2023-01-15T12:25:01;8.20;1.00
1377;DHT22;682;52.502;13.488;2023-01-15T12:27:51;8.20;1.00
1377;DHT22;682;52.502;13.488;2023-01-15T12:30:45;8.30;1.00
1377;DHT22;682;52.502;13.488;2023-01-15T12:33:45;8.20;1.00
1377;DHT22;682;52.502;13.488;2023-01-15T12:36:23;8.20;1.00
1377;DHT22;682;52.502;13.488;2023-01-15T12:39:11;8.30;1.00
1377;DHT22;682;52.502;13.488;2023-01-15T12:41:52;8.30;1.00
1377;DHT22;682;52.502;13.488;2023-01-15T12:44:40;8.40;1.00
1377;DHT22;682;52.502;13.488;2023-01-15T12:47:39;8.60;1.00
1377;DHT22;682;52.502;13.488;2023-01-15T12:50:28;8.80;1.00
1377;DHT22;682;52.502;13.488;2023-01-15T12:53:05;8.90;1.00
1377;DHT22;682;52.502;13.488;2023-01-15T12:55:38;8.90;1.00
1377;DHT22;682;52.502;13.488;2023-01-15T12:58:20;8.80;1.00
1377;DHT22;682;52.502;13.488;2023-01-15T13:01:01;8.50;1.00
1377;DHT22;682;52.502;13.488;2023-01-15T13:03:59;8.50;1.00
1377;DHT22;682;52.502;13.488;2023-01-15T13:09:42;8.40;1.00
1377;DHT22;682;52.502;13.488;2023-01-15T13:12:20;8.40;1.00
1377;DHT22;682;52.502;13.488;2023-01-15T13:15:03;8.50;1.00
1377;DHT22;682;52.502;13.488;2023-01-15T13:17:52;8.60;1.00
1377;DHT22;682;52.502;13.488;2023-01-15T13:20:46;8.60;1.00
1377;DHT22;682;52.502;13.488;2023-01-15T13:23:42;8.90;1.00
1377;DHT22;682;52.502;13.488;2023-01-15T13:26:36;9.00;1.00
1377;DHT22;682;52.502;13.488;2023-01-15T13:29:22;9.00;1.00
1377;DHT22;682;52.502;13.488;2023-01-15T13:32:23;8.90;1.00
1377;DHT22;682;52.502;13.488;2023-01-15T13:35:17;8.70;1.00
1377;DHT22;682;52.502;13.488;2023-01-15T13:38:10;8.40;1.00
1377;DHT22;682;52.502;13.488;2023-01-15T13:41:04;8.30;1.00
1377;DHT22;682;52.502;13.488;2023-01-15T13:43:49;8.20;1.00
1377;DHT22;682;52.502;13.488;2023-01-15T13:46:26;8.10;1.00
1377;DHT22;682;52.502;13.488;2023-01-15T13:49:01;8.20;1.00
1377;DHT22;682;52.502;13.488;2023-01-15T13:51:45;8.10;1.00
1377;DHT22;682;52.502;13.488;2023-01-15T13:54:29;8.00;1.00
1377;DHT22;682;52.502;13.488;2023-01-15T13:57:22;7.90;1.00
1377;DHT22;682;52.502;13.488;2023-01-15T13:59:51;7.80;1.00
1377;DHT22;682;52.502;13.488;2023-01-15T14:02:50;7.80;1.00
1377;DHT22;682;52.502;13.488;2023-01-15T14:05:28;7.80;1.00
1377;DHT22;682;52.502;13.488;2023-01-15T14:08:02;7.80;1.00
1377;DHT22;682;52.502;13.488;2023-01-15T14:10:51;7.90;1.00
1377;DHT22;682;52.502;13.488;2023-01-15T14:13:54;7.90;1.00
1377;DHT22;682;52.502;13.488;2023-01-15T14:16:51;7.80;1.00
1377;DHT22;682;52.502;13.488;2023-01-15T14:20:01;7.70;1.00
1377;DHT22;682;52.502;13.488;2023-01-15T14:22:55;7.70;1.00
1377;DHT22;682;52.502;13.488;2023-01-15T14:25:53;7.70;1.00
1377;DHT22;682;52.502;13.488;2023-01-15T14:28:54;7.60;1.00
1377;DHT22;682;52.502;13.488;2023-01-15T14:32:30;7.60;1.00
1377;DHT22;682;52.502;13.488;2023-01-15T14:34:42;7.60;1.00
1377;DHT22;682;52.502;13.488;2023-01-15T14:37:29;7.60;1.00
1377;DHT22;682;52.502;13.488;2023-01-15T14:40:19;7.60;1.00
1377;DHT22;682;52.502;13.488;2023-01-15T14:42:53;7.50;1.00
1377;DHT22;682;52.502;13.488;2023-01-15T14:45:40;7.40;1.00
1377;DHT22;682;52.502;13.488;2023-01-15T14:48:40;7.30;1.00
1377;DHT22;682;52.502;13.488;2023-01-15T14:51:13;7.30;1.00
1377;DHT22;682;52.502;13.488;2023-01-15T14:53:51;7.20;1.00
1377;DHT22;682;52.502;13.488;2023-01-15T14:56:30;7.20;1.00
1377;DHT22;682;52.502;13.488;2023-01-15T14:59:08;7.20;1.00
1377;DHT22;682;52.502;13.488;2023-01-15T15:01:43;7.20;1.00
1377;DHT22;682;52.502;13.488;2023-01-15T15:04:31;7.30;1.00
1377;DHT22;682;52.502;13.488;2023-01-15T15:07:12;7.30;1.00
1377;DHT22;682;52.502;13.488;2023-01-15T15:10:03;7.40;1.00
1377;DHT22;682;52.502;13.488;2023-01-15T15:12:43;7.30;1.00
1377;DHT22;682;52.502;13.488;2023-01-15T15:15:28;7.30;1.00
1377;DHT22;682;52.502;13.488;2023-01-15T15:18:25;7.10;1.00
1377;DHT22;682;52.502;13.488;2023-01-15T15:21:07;7.00;1.00
1377;DHT22;682;52.502;13.488;2023-01-15T15:23:52;6.80;1.00
1377;DHT22;682;52.502;13.488;2023-01-15T15:26:45;6.80;1.00
1377;DHT22;682;52.502;13.488;2023-01-15T15:29:42;6.70;1.00
1377;DHT22;682;52.502;13.488;2023-01-15T15:32:22;6.60;1.00
1377;DHT22;682;52.502;13.488;2023-01-15T15:34:52;6.60;1.00
1377;DHT22;682;52.502;13.488;2023-01-15T15:37:27;6.50;1.00
1377;DHT22;682;52.502;13.488;2023-01-15T15:40:12;6.50;1.00
1377;DHT22;682;52.502;13.488;2023-01-15T15:42:53;6.40;1.00
1377;DHT22;682;52.502;13.488;2023-01-15T15:45:55;6.40;1.00
1377;DHT22;682;52.502;13.488;2023-01-15T15:48:41;6.40;1.00
1377;DHT22;682;52.502;13.488;2023-01-15T15:51:34;6.30;1.00
1377;DHT22;682;52.502;13.488;2023-01-15T15:54:16;6.30;1.00
1377;DHT22;682;52.502;13.488;2023-01-15T15:56:50;6.20;1.00
1377;DHT22;682;52.502;13.488;2023-01-15T15:59:31;6.20;1.00
1377;DHT22;682;52.502;13.488;2023-01-15T16:02:18;6.20;1.00
1377;DHT22;682;52.502;13.488;2023-01-15T16:04:49;6.10;1.00
1377;DHT22;682;52.502;13.488;2023-01-15T16:07:22;6.10;1.00
1377;DHT22;682;52.502;13.488;2023-01-15T16:09:59;6.10;1.00
1377;DHT22;682;52.502;13.488;2023-01-15T16:12:43;6.00;1.00
1377;DHT22;682;52.502;13.488;2023-01-15T16:15:29;6.00;1.00
1377;DHT22;682;52.502;13.488;2023-01-15T16:18:19;6.00;1.00
1377;DHT22;682;52.502;13.488;2023-01-15T16:20:50;6.00;1.00
1377;DHT22;682;52.502;13.488;2023-01-15T16:23:40;5.90;1.00
1377;DHT22;682;52.502;13.488;2023-01-15T16:26:12;5.90;1.00
1377;DHT22;682;52.502;13.488;2023-01-15T16:28:53;5.90;1.00
1377;DHT22;682;52.502;13.488;2023-01-15T16:31:31;5.80;1.00
1377;DHT22;682;52.502;13.488;2023-01-15T16:34:01;5.90;1.00
1377;DHT22;682;52.502;13.488;2023-01-15T16:36:39;5.80;1.00
1377;DHT22;682;52.502;13.488;2023-01-15T16:39:22;5.80;1.00
1377;DHT22;682;52.502;13.488;2023-01-15T16:42:32;5.80;1.00
1377;DHT22;682;52.502;13.488;2023-01-15T16:45:22;5.70;1.00
1377;DHT22;682;52.502;13.488;2023-01-15T16:48:09;5.80;1.00
1377;DHT22;682;52.502;13.488;2023-01-15T16:50:39;5.70;1.00
1377;DHT22;682;52.502;13.488;2023-01-15T16:56:25;5.70;1.00
1377;DHT22;682;52.502;13.488;2023-01-15T16:58:54;5.70;1.00
1377;DHT22;682;52.502;13.488;2023-01-15T17:01:32;5.70;1.00
1377;DHT22;682;52.502;13.488;2023-01-15T17:04:39;5.70;1.00
1377;DHT22;682;52.502;13.488;2023-01-15T17:10:20;5.70;1.00
1377;DHT22;682;52.502;13.488;2023-01-15T17:12:48;5.60;1.00
1377;DHT22;682;52.502;13.488;2023-01-15T17:18:40;5.70;1.00
1377;DHT22;682;52.502;13.488;2023-01-15T17:38:52;5.70;1.00
1377;DHT22;682;52.502;13.488;2023-01-15T17:44:51;5.70;1.00
1377;DHT22;682;52.502;13.488;2023-01-15T17:47:52;5.80;1.00
1377;DHT22;682;52.502;13.488;2023-01-15T17:50:59;5.80;1.00
1377;DHT22;682;52.502;13.488;2023-01-15T18:04:13;5.90;1.00
1377;DHT22;682;52.502;13.488;2023-01-15T18:09:30;5.80;1.00
1377;DHT22;682;52.502;13.488;2023-01-15T18:14:09;5.80;1.00
1377;DHT22;682;52.502;13.488;2023-01-15T18:17:12;5.80;1.00
1377;DHT22;682;52.502;13.488;2023-01-15T18:26:40;5.90;1.00
1377;DHT22;682;52.502;13.488;2023-01-15T18:57:52;5.80;1.00
1377;DHT22;682;52.502;13.488;2023-01-15T19:01:02;5.80;1.00
1377;DHT22;682;52.502;13.488;2023-01-15T19:07:22;5.90;1.00
1377;DHT22;682;52.502;13.488;2023-01-15T19:10:30;5.90;1.00
1377;DHT22;682;52.502;13.488;2023-01-15T19:13:22;5.80;1.00
1377;DHT22;682;52.502;13.488;2023-01-15T19:16:12;5.80;1.00
1377;DHT22;682;52.502;13.488;2023-01-15T19:19:20;5.80;1.00
1377;DHT22;682;52.502;13.488;2023-01-15T19:21:51;5.80;1.00
1377;DHT22;682;52.502;13.488;2023-01-15T19:24:33;5.80;1.00
1377;DHT22;682;52.502;13.488;2023-01-15T19:27:22;5.90;1.00
1377;DHT22;682;52.502;13.488;2023-01-15T19:34:01;5.80;1.00
1377;DHT22;682;52.502;13.488;2023-01-15T19:36:32;5.80;1.00
1377;DHT22;682;52.502;13.488;2023-01-15T19:39:12;5.90;1.00
1377;DHT22;682;52.502;13.488;2023-01-15T19:41:49;5.80;1.00
1377;DHT22;682;52.502;13.488;2023-01-15T19:44:59;5.80;1.00
1377;DHT22;682;52.502;13.488;2023-01-15T19:47:49;5.80;1.00
1377;DHT22;682;52.502;13.488;2023-01-15T19:50:36;5.80;1.00
1377;DHT22;682;52.502;13.488;2023-01-15T19:53:13;5.80;1.00
1377;DHT22;682;52.502;13.488;2023-01-15T19:55:52;5.80;1.00
1377;DHT22;682;52.502;13.488;2023-01-15T19:58:42;5.80;1.00
1377;DHT22;682;52.502;13.488;2023-01-15T20:01:20;5.80;1.00
1377;DHT22;682;52.502;13.488;2023-01-15T20:03:50;5.80;1.00
1377;DHT22;682;52.502;13.488;2023-01-15T20:06:30;5.80;1.00
1377;DHT22;682;52.502;13.488;2023-01-15T20:09:03;5.90;1.00
1377;DHT22;682;52.502;13.488;2023-01-15T20:11:42;5.90;1.00
1377;DHT22;682;52.502;13.488;2023-01-15T20:17:12;5.90;1.00
1377;DHT22;682;52.502;13.488;2023-01-15T20:19:52;5.90;1.00
1377;DHT22;682;52.502;13.488;2023-01-15T20:22:52;5.80;1.00
1377;DHT22;682;52.502;13.488;2023-01-15T20:25:31;5.80;1.00
1377;DHT22;682;52.502;13.488;2023-01-15T20:28:12;5.90;1.00
1377;DHT22;682;52.502;13.488;2023-01-15T20:31:13;5.80;1.00
1377;DHT22;682;52.502;13.488;2023-01-15T20:34:23;5.80;1.00
1377;DHT22;682;52.502;13.488;2023-01-15T20:37:22;5.80;1.00
1377;DHT22;682;52.502;13.488;2023-01-15T20:40:01;5.80;1.00
1377;DHT22;682;52.502;13.488;2023-01-15T20:42:30;5.80;1.00
1377;DHT22;682;52.502;13.488;2023-01-15T20:45:15;5.80;1.00
1377;DHT22;682;52.502;13.488;2023-01-15T20:47:44;5.80;1.00
1377;DHT22;682;52.502;13.488;2023-01-15T20:50:30;5.80;1.00
1377;DHT22;682;52.502;13.488;2023-01-15T20:52:59;5.80;1.00
1377;DHT22;682;52.502;13.488;2023-01-15T20:55:30;5.80;1.00
1377;DHT22;682;52.502;13.488;2023-01-15T20:58:13;5.80;1.00
1377;DHT22;682;52.502;13.488;2023-01-15T21:01:04;5.80;1.00
1377;DHT22;682;52.502;13.488;2023-01-15T21:03:53;5.80;1.00
1377;DHT22;682;52.502;13.488;2023-01-15T21:06:53;5.70;1.00
1377;DHT22;682;52.502;13.488;2023-01-15T21:09:43;5.70;1.00
1377;DHT22;682;52.502;13.488;2023-01-15T21:12:22;5.70;1.00
1377;DHT22;682;52.502;13.488;2023-01-15T21:14:49;5.70;1.00
1377;DHT22;682;52.502;13.488;2023-01-15T21:17:17;5.70;1.00
1377;DHT22;682;52.502;13.488;2023-01-15T21:19:59;5.70;1.00
1377;DHT22;682;52.502;13.488;2023-01-15T21:22:42;5.70;1.00
1377;DHT22;682;52.502;13.488;2023-01-15T21:25:35;5.70;1.00
1377;DHT22;682;52.502;13.488;2023-01-15T21:28:23;5.70;1.00
1377;DHT22;682;52.502;13.488;2023-01-15T21:31:42;5.70;1.00
1377;DHT22;682;52.502;13.488;2023-01-15T21:34:32;5.70;1.00
1377;DHT22;682;52.502;13.488;2023-01-15T21:37:13;5.70;1.00
1377;DHT22;682;52.502;13.488;2023-01-15T21:39:52;5.80;1.00
1377;DHT22;682;52.502;13.488;2023-01-15T21:42:42;5.80;1.00
1377;DHT22;682;52.502;13.488;2023-01-15T21:58:12;5.90;1.00
1377;DHT22;682;52.502;13.488;2023-01-15T22:03:53;5.90;1.00
1377;DHT22;682;52.502;13.488;2023-01-15T22:06:53;5.90;1.00